Terminal Aerodrome Forecast
Issued by NWS

Home | Current Version | Previous Version | Text Only | Print | Product List | Glossary Off
Versions: 1 2 3 4 5 6 7 8 9 10 11 12 13 14 15 16 17 18 19 20 21 22 23 24

000
FTUS43 KLOT 262300
TAFDPA
TAF
KDPA 262336Z 2700/2724 18005KT P6SM BKN025 OVC040
     FM270500 18008KT 6SM BR OVC012
     FM270800 18009KT 2SM -DZRA BR OVC007
     FM271500 23014G22KT P6SM SCT007 OVC015
     FM271800 27016G25KT P6SM BKN025=

USA.gov is the U.S. government's official web portal to all federal, state and local government web resources and services.